Time;durP1;ratioP1;P1;durP2;ratioP2;P2;SDS_P1;SDS_P2;PMS_P1;PMS_P2;Temp;Humidity;BMP_temperature;BMP_pressure;BME280_temperature;BME280_humidity;BME280_pressure;Samples;Min_cycle;Max_cycle;Signal;HPM_P1;HPM_P2
2021/09/28 00:01:06;;;;;;;84.65;57.42;;;;;;;16.26;77.57;100561.91;4890381;28;101722;-86
2021/09/28 00:03:32;;;;;;;88.82;57.95;;;;;;;16.22;77.55;100562.13;4879351;28;100084;-86
2021/09/28 00:05:57;;;;;;;94.70;59.30;;;;;;;16.22;77.49;100570.06;4870896;28;96842;-86
2021/09/28 00:08:23;;;;;;;82.85;55.38;;;;;;;16.29;77.06;100579.44;4879689;28;96993;-86
2021/09/28 00:10:48;;;;;;;85.75;56.75;;;;;;;16.20;77.98;100572.81;4877685;28;101341;-86
2021/09/28 00:13:16;;;;;;;78.78;55.58;;;;;;;16.22;77.45;100556.84;4888884;28;97965;-85
2021/09/28 00:15:41;;;;;;;73.78;53.47;;;;;;;16.28;77.34;100567.94;4860568;28;96755;-86
2021/09/28 00:18:07;;;;;;;70.18;50.55;;;;;;;16.28;77.32;100562.66;4876321;28;97092;-87
2021/09/28 00:20:37;;;;;;;67.47;49.38;;;;;;;16.23;77.19;100555.88;4859128;28;97276;-85
2021/09/28 00:23:07;;;;;;;62.70;48.83;;;;;;;16.30;77.14;100562.59;4848560;28;100567;-85
2021/09/28 00:25:33;;;;;;;63.10;45.72;;;;;;;16.26;77.11;100558.38;4876476;28;97346;-85
2021/09/28 00:27:58;;;;;;;61.45;44.97;;;;;;;16.30;76.84;100558.13;4861018;28;97363;-86
2021/09/28 00:30:24;;;;;;;55.55;42.63;;;;;;;16.27;77.04;100565.41;4844479;28;101234;-88
2021/09/28 00:32:49;;;;;;;56.08;43.88;;;;;;;16.30;76.94;100562.59;4859949;28;100075;-85
2021/09/28 00:35:15;;;;;;;61.58;45.55;;;;;;;16.25;76.96;100560.16;4843629;28;96812;-85
2021/09/28 00:37:41;;;;;;;54.60;40.72;;;;;;;16.22;76.63;100557.69;4860370;28;96678;-86
2021/09/28 00:40:06;;;;;;;47.55;39.75;;;;;;;16.18;77.19;100552.66;4875439;28;98269;-85
2021/09/28 00:42:32;;;;;;;48.33;40.95;;;;;;;16.20;77.03;100558.69;4866258;28;98335;-85
2021/09/28 00:44:58;;;;;;;44.25;39.22;;;;;;;16.15;76.89;100558.13;4860348;28;96656;-86
2021/09/28 00:47:23;;;;;;;43.55;37.83;;;;;;;16.16;76.88;100559.81;4859816;28;96951;-85
2021/09/28 00:49:49;;;;;;;47.55;38.25;;;;;;;16.15;76.53;100547.53;4859708;28;101462;-86
2021/09/28 00:52:20;;;;;;;43.10;37.30;;;;;;;16.09;76.68;100561.94;4864745;28;100327;-86
2021/09/28 00:54:46;;;;;;;51.80;38.75;;;;;;;16.09;76.83;100559.28;4860478;28;96752;-84
2021/09/28 00:57:11;;;;;;;46.45;37.38;;;;;;;16.09;76.27;100550.50;4849697;28;96864;-86
2021/09/28 00:59:38;;;;;;;49.38;37.75;;;;;;;16.07;76.60;100558.50;4859583;28;97546;-85
2021/09/28 01:02:08;;;;;;;43.70;38.95;;;;;;;16.13;76.14;100544.09;4840703;29;99827;-86
2021/09/28 01:04:34;;;;;;;42.85;37.53;;;;;;;16.09;76.32;100540.75;4853937;28;97198;-86
2021/09/28 01:07:02;;;;;;;41.35;36.50;;;;;;;16.05;76.29;100548.00;4856766;29;96736;-85
2021/09/28 01:09:28;;;;;;;43.03;38.42;;;;;;;16.01;76.39;100546.44;4835348;28;101635;-86
2021/09/28 01:11:53;;;;;;;39.72;35.60;;;;;;;16.00;76.29;100550.03;4867993;28;100868;-87
2021/09/28 01:14:19;;;;;;;37.55;33.55;;;;;;;15.98;76.26;100551.06;4865205;28;96697;-85
2021/09/28 01:16:45;;;;;;;38.97;34.00;;;;;;;16.05;75.69;100549.78;4844270;28;96911;-85
2021/09/28 01:19:11;;;;;;;39.35;32.80;;;;;;;15.99;75.84;100547.47;4840448;29;100703;-86
2021/09/28 01:21:38;;;;;;;36.65;32.28;;;;;;;16.00;75.96;100546.56;4854843;28;97861;-86
2021/09/28 01:24:04;;;;;;;38.33;31.02;;;;;;;15.88;76.32;100547.16;4859380;28;96740;-85
2021/09/28 01:26:30;;;;;;;35.00;31.25;;;;;;;16.00;75.93;100541.25;4859104;28;96891;-86
2021/09/28 01:28:56;;;;;;;36.63;32.78;;;;;;;15.91;75.80;100542.59;4841303;29;101488;-86
2021/09/28 01:31:25;;;;;;;34.47;30.85;;;;;;;15.88;76.45;100537.44;4850610;28;98385;-86
2021/09/28 01:33:52;;;;;;;35.72;30.25;;;;;;;15.92;76.01;100548.75;4851757;28;96792;-85
2021/09/28 01:36:17;;;;;;;35.83;32.22;;;;;;;16.00;75.83;100546.56;4843839;28;97071;-85
2021/09/28 01:38:43;;;;;;;33.75;30.08;;;;;;;15.90;75.83;100540.00;4859371;28;101025;-85
2021/09/28 01:41:10;;;;;;;34.22;30.58;;;;;;;15.93;75.84;100535.41;4858993;28;100019;-87
2021/09/28 01:43:35;;;;;;;36.75;30.00;;;;;;;16.01;75.53;100535.88;4859336;28;96910;-85
2021/09/28 01:46:02;;;;;;;33.70;29.95;;;;;;;16.05;75.49;100541.84;4851780;28;97289;-86
2021/09/28 01:48:31;;;;;;;35.08;29.92;;;;;;;15.88;75.77;100526.00;4874495;28;98720;-85
2021/09/28 01:50:56;;;;;;;37.85;30.33;;;;;;;15.91;75.59;100531.13;4858967;28;101295;-86
2021/09/28 01:53:22;;;;;;;33.75;30.13;;;;;;;15.81;75.61;100528.13;4858840;28;96850;-85
2021/09/28 01:55:47;;;;;;;33.13;29.67;;;;;;;15.75;75.94;100531.09;4875249;28;96925;-85
2021/09/28 01:58:14;;;;;;;34.17;30.55;;;;;;;15.67;76.20;100533.25;4853879;29;100461;-86
2021/09/28 02:00:41;;;;;;;35.88;30.27;;;;;;;15.78;75.93;100530.94;4838444;28;101348;-87
2021/09/28 02:03:07;;;;;;;34.55;30.75;;;;;;;15.76;75.94;100530.16;4858873;28;97129;-85
2021/09/28 02:05:33;;;;;;;35.33;30.50;;;;;;;15.63;76.23;100528.09;4859238;28;97134;-85
2021/09/28 02:07:58;;;;;;;36.22;30.75;;;;;;;15.60;75.88;100535.34;4874467;28;98174;-86
2021/09/28 02:10:24;;;;;;;34.40;30.75;;;;;;;15.61;76.19;100540.56;4833928;29;100400;-88
2021/09/28 02:12:50;;;;;;;33.88;28.85;;;;;;;15.51;76.54;100536.69;4858785;28;97809;-85
2021/09/28 02:15:15;;;;;;;33.10;29.60;;;;;;;15.53;76.50;100544.53;4877885;28;96811;-85
2021/09/28 02:17:41;;;;;;;34.55;29.35;;;;;;;15.58;76.36;100545.16;4888685;28;102037;-86
2021/09/28 02:20:08;;;;;;;33.97;30.05;;;;;;;15.51;76.38;100541.97;4889448;28;98123;-85
2021/09/28 02:22:34;;;;;;;34.40;30.70;;;;;;;15.52;76.33;100554.25;4880422;28;97439;-87
2021/09/28 02:24:59;;;;;;;32.83;29.25;;;;;;;15.54;76.22;100557.69;4887729;28;96836;-85
2021/09/28 02:27:25;;;;;;;35.17;27.75;;;;;;;15.60;76.05;100559.16;4878644;28;101193;-86
2021/09/28 02:29:50;;;;;;;32.53;28.85;;;;;;;15.55;76.22;100566.47;4875408;28;100131;-86
2021/09/28 02:32:16;;;;;;;38.20;30.70;;;;;;;15.57;76.22;100562.81;4877999;28;96820;-85
2021/09/28 02:34:41;;;;;;;32.25;27.50;;;;;;;15.59;76.21;100576.84;4867297;28;96980;-87
2021/09/28 02:37:08;;;;;;;33.45;29.10;;;;;;;15.60;76.22;100572.41;4880643;28;98372;-85
2021/09/28 02:39:37;;;;;;;34.30;30.65;;;;;;;15.67;75.84;100568.50;4880878;28;101230;-85
2021/09/28 02:42:03;;;;;;;39.50;30.08;;;;;;;15.76;75.74;100567.19;4895493;28;96737;-86
2021/09/28 02:44:29;;;;;;;32.95;29.05;;;;;;;15.69;76.38;100568.47;4880912;28;98020;-85
2021/09/28 02:46:54;;;;;;;32.85;29.35;;;;;;;15.74;76.20;100577.88;4864048;28;101600;-86
2021/09/28 02:49:20;;;;;;;33.75;29.58;;;;;;;15.77;76.04;100572.44;4872651;28;101449;-85
2021/09/28 02:51:46;;;;;;;33.45;29.90;;;;;;;15.81;75.98;100567.81;4896069;28;96783;-85
2021/09/28 02:54:11;;;;;;;39.83;31.83;;;;;;;15.96;75.58;100566.16;4880426;28;96978;-86
2021/09/28 02:56:37;;;;;;;36.17;32.00;;;;;;;15.81;75.98;100570.47;4881028;28;98334;-85
2021/09/28 02:59:02;;;;;;;35.97;32.30;;;;;;;15.86;76.11;100570.25;4864643;28;101714;-86
2021/09/28 03:01:28;;;;;;;34.78;30.73;;;;;;;15.80;76.10;100572.25;4875541;28;96811;-85
2021/09/28 03:03:53;;;;;;;35.22;31.13;;;;;;;15.95;75.89;100575.06;4877689;28;96990;-85
2021/09/28 03:06:19;;;;;;;37.38;32.80;;;;;;;15.87;76.00;100567.50;4895787;28;98812;-85
2021/09/28 03:08:44;;;;;;;36.38;32.50;;;;;;;15.92;75.81;100568.13;4880235;28;98641;-85
2021/09/28 03:11:10;;;;;;;45.10;34.65;;;;;;;15.88;76.21;100565.69;4864107;28;96804;-91
2021/09/28 03:13:36;;;;;;;47.42;37.28;;;;;;;15.88;76.13;100576.28;4880197;28;96955;-85
2021/09/28 03:16:01;;;;;;;48.55;36.30;;;;;;;15.83;76.13;100572.09;4879775;28;101160;-85
2021/09/28 03:18:27;;;;;;;43.63;35.17;;;;;;;15.93;76.21;100575.13;4887881;28;97601;-86
2021/09/28 03:20:53;;;;;;;46.35;34.60;;;;;;;15.91;76.28;100576.13;4862876;28;96771;-85
2021/09/28 03:23:18;;;;;;;44.85;34.78;;;;;;;15.89;76.36;100578.03;4879695;28;97014;-85
2021/09/28 03:25:45;;;;;;;42.75;32.40;;;;;;;15.80;76.67;100568.78;4863096;28;101032;-85
2021/09/28 03:28:12;;;;;;;44.33;32.80;;;;;;;15.81;76.39;100579.25;4885130;28;101921;-86
2021/09/28 03:30:37;;;;;;;43.65;33.08;;;;;;;15.85;76.20;100577.31;4864258;28;96879;-85
2021/09/28 03:33:04;;;;;;;43.47;33.65;;;;;;;15.81;76.63;100589.84;4879871;28;97341;-85
2021/09/28 03:35:29;;;;;;;44.08;34.10;;;;;;;15.73;76.76;100576.16;4895421;28;98164;-85
2021/09/28 03:37:55;;;;;;;42.30;32.95;;;;;;;15.71;76.96;100575.38;4861014;28;102003;-86
2021/09/28 03:40:20;;;;;;;41.63;33.65;;;;;;;15.75;77.41;100584.03;4864378;28;97732;-85
2021/09/28 03:42:47;;;;;;;43.10;34.22;;;;;;;15.75;77.10;100590.16;4880414;28;96833;-85
2021/09/28 03:45:12;;;;;;;46.38;34.22;;;;;;;15.71;77.25;100593.91;4852086;28;100153;-86
2021/09/28 03:47:38;;;;;;;45.90;34.25;;;;;;;15.75;77.07;100592.81;4876293;28;100792;-87
2021/09/28 03:50:05;;;;;;;45.33;34.60;;;;;;;15.78;77.11;100600.59;4878069;28;97172;-84
2021/09/28 03:52:30;;;;;;;50.80;35.55;;;;;;;15.79;76.97;100594.34;4887803;28;97044;-84
2021/09/28 03:54:56;;;;;;;53.28;36.13;;;;;;;15.89;76.05;100601.84;4876366;28;101517;-85
2021/09/28 03:57:21;;;;;;;54.33;36.03;;;;;;;15.86;76.38;100599.34;4875020;28;97221;-84
2021/09/28 03:59:47;;;;;;;46.00;35.55;;;;;;;15.91;76.74;100616.72;4889257;28;96669;-85
2021/09/28 04:02:13;;;;;;;52.45;38.05;;;;;;;15.99;76.39;100605.72;4863003;28;97320;-86
2021/09/28 04:04:39;;;;;;;49.92;35.95;;;;;;;15.93;76.56;100612.19;4879177;28;100506;-86
2021/09/28 04:07:05;;;;;;;57.72;37.83;;;;;;;15.91;76.69;100610.53;4891269;28;97519;-85
2021/09/28 04:09:30;;;;;;;46.80;35.15;;;;;;;15.89;77.14;100605.34;4860295;28;96700;-85
2021/09/28 04:11:56;;;;;;;55.10;38.20;;;;;;;15.84;76.89;100605.56;4853668;28;96878;-85
2021/09/28 04:14:21;;;;;;;50.17;36.20;;;;;;;15.83;76.66;100605.66;4876554;28;100096;-85
2021/09/28 04:16:47;;;;;;;53.88;38.72;;;;;;;15.82;76.62;100612.75;4894779;28;98205;-85
2021/09/28 04:19:12;;;;;;;54.28;38.00;;;;;;;15.81;76.67;100600.44;4875789;28;96729;-85
2021/09/28 04:21:39;;;;;;;53.63;39.28;;;;;;;15.83;76.87;100603.00;4886902;28;96897;-87
2021/09/28 04:24:06;;;;;;;51.53;36.63;;;;;;;15.83;77.13;100597.72;4863455;28;101649;-85
2021/09/28 04:26:33;;;;;;;49.70;37.78;;;;;;;15.90;76.54;100606.19;4876090;28;98133;-85
2021/09/28 04:28:58;;;;;;;52.00;37.83;;;;;;;15.77;77.13;100609.47;4884908;28;96833;-86
2021/09/28 04:31:24;;;;;;;52.35;37.22;;;;;;;15.78;77.19;100618.28;4878781;28;96971;-88
2021/09/28 04:33:49;;;;;;;48.75;37.70;;;;;;;15.83;76.75;100603.00;4879054;28;100291;-85
2021/09/28 04:36:15;;;;;;;52.97;37.05;;;;;;;15.96;76.80;100611.16;4878698;28;98030;-86
2021/09/28 04:38:40;;;;;;;56.40;37.78;;;;;;;15.73;77.03;100607.06;4877994;28;96640;-85
2021/09/28 04:41:06;;;;;;;53.90;39.42;;;;;;;15.70;77.50;100613.34;4895093;28;96773;-85
2021/09/28 04:43:32;;;;;;;61.25;38.72;;;;;;;15.69;77.65;100616.09;4865215;28;101437;-84
2021/09/28 04:45:58;;;;;;;55.97;39.65;;;;;;;15.72;77.44;100618.59;4878427;28;100231;-84
2021/09/28 04:48:24;;;;;;;55.67;37.78;;;;;;;15.69;77.75;100618.75;4878652;28;97039;-86
2021/09/28 04:50:52;;;;;;;56.65;38.92;;;;;;;15.71;77.60;100608.94;4863316;28;97800;-85
2021/09/28 04:53:19;;;;;;;56.13;39.63;;;;;;;15.82;77.14;100612.75;4878164;28;98132;-84
2021/09/28 04:55:45;;;;;;;53.85;38.28;;;;;;;15.69;77.50;100614.28;4869897;28;101788;-85
2021/09/28 04:58:11;;;;;;;54.83;36.63;;;;;;;15.69;77.61;100610.81;4888477;28;96828;-85
2021/09/28 05:00:37;;;;;;;52.30;36.40;;;;;;;15.75;77.08;100613.97;4884669;28;97506;-86
2021/09/28 05:03:02;;;;;;;50.55;35.42;;;;;;;15.70;77.31;100623.94;4876500;28;98161;-85
2021/09/28 05:05:28;;;;;;;53.78;36.28;;;;;;;15.76;77.23;100622.78;4900022;28;101509;-85
2021/09/28 05:07:53;;;;;;;49.13;34.83;;;;;;;15.76;77.06;100628.91;4893221;28;97220;-86
2021/09/28 05:10:19;;;;;;;52.88;35.20;;;;;;;15.91;76.60;100643.19;4876156;28;97216;-85
2021/09/28 05:12:44;;;;;;;58.00;35.80;;;;;;;15.74;76.72;100636.09;4876486;28;98094;-84
2021/09/28 05:15:10;;;;;;;48.22;32.70;;;;;;;15.78;76.60;100631.50;4876514;28;97757;-84
2021/09/28 05:17:35;;;;;;;52.25;33.65;;;;;;;15.76;76.89;100633.34;4875244;28;97873;-84
2021/09/28 05:20:05;;;;;;;54.00;34.50;;;;;;;15.85;76.45;100627.59;4863809;28;97016;-84
2021/09/28 05:22:31;;;;;;;56.08;35.15;;;;;;;15.83;76.49;100634.78;4875188;28;100265;-82
2021/09/28 05:24:56;;;;;;;63.03;34.95;;;;;;;15.78;76.72;100636.78;4876968;28;97936;-83
2021/09/28 05:27:22;;;;;;;58.95;35.33;;;;;;;15.85;76.41;100646.13;4889526;28;97740;-84
2021/09/28 05:29:47;;;;;;;60.80;36.15;;;;;;;15.83;75.94;100638.28;4866639;28;96975;-84
2021/09/28 05:32:13;;;;;;;58.45;36.00;;;;;;;15.80;76.06;100646.38;4869407;28;103036;-84
2021/09/28 05:34:39;;;;;;;60.78;35.95;;;;;;;15.86;76.04;100641.72;4866432;28;97488;-85
2021/09/28 05:37:05;;;;;;;60.67;36.10;;;;;;;15.96;75.39;100641.13;4877260;28;97478;-84
2021/09/28 05:39:30;;;;;;;58.78;33.53;;;;;;;15.85;75.89;100638.19;4885382;28;96992;-83
2021/09/28 05:41:56;;;;;;;58.78;33.42;;;;;;;15.97;75.40;100647.28;4876998;28;101502;-82
2021/09/28 05:44:21;;;;;;;55.08;33.35;;;;;;;15.86;75.24;100647.00;4856417;28;102682;-86
2021/09/28 05:46:47;;;;;;;53.50;30.13;;;;;;;15.88;75.44;100647.75;4870298;28;97135;-84
2021/09/28 05:49:13;;;;;;;47.65;30.15;;;;;;;15.63;76.11;100651.63;4865632;28;96878;-83
2021/09/28 05:51:38;;;;;;;59.15;30.90;;;;;;;15.76;75.65;100649.25;4866456;28;101459;-85
2021/09/28 05:54:07;;;;;;;53.85;30.35;;;;;;;15.72;76.27;100651.19;4873248;28;101075;-84
2021/09/28 05:56:33;;;;;;;56.03;30.95;;;;;;;15.75;75.76;100652.84;4844044;28;97000;-84
2021/09/28 05:58:58;;;;;;;63.95;31.50;;;;;;;15.73;75.90;100666.13;4878583;28;96873;-84
2021/09/28 06:01:24;;;;;;;65.72;30.02;;;;;;;15.67;75.65;100665.56;4875734;28;101400;-85
2021/09/28 06:03:49;;;;;;;59.72;30.15;;;;;;;15.62;76.17;100661.34;4869251;28;97889;-85
2021/09/28 06:06:15;;;;;;;62.28;30.02;;;;;;;15.62;76.19;100664.00;4879648;28;96828;-81
2021/09/28 06:08:41;;;;;;;59.72;29.58;;;;;;;15.72;76.09;100667.06;4885001;28;96749;-85
2021/09/28 06:11:06;;;;;;;56.35;30.48;;;;;;;15.75;75.63;100666.91;4892425;28;98738;-91
2021/09/28 06:13:32;;;;;;;64.03;31.02;;;;;;;15.80;75.65;100672.00;4875617;28;101522;-89
2021/09/28 06:15:57;;;;;;;68.90;32.38;;;;;;;15.88;75.50;100672.44;4885701;28;96893;-90
2021/09/28 06:18:23;;;;;;;74.35;34.38;;;;;;;15.81;75.62;100676.34;4883627;28;96951;-91
2021/09/28 06:20:49;;;;;;;77.53;34.22;;;;;;;15.88;75.33;100669.78;4868867;28;98627;-80
2021/09/28 06:23:14;;;;;;;74.88;35.95;;;;;;;15.76;75.55;100676.56;4864285;28;100944;-79
2021/09/28 06:25:40;;;;;;;68.65;35.05;;;;;;;15.65;76.45;100673.59;4877455;28;96825;-79
2021/09/28 06:28:05;;;;;;;60.35;32.85;;;;;;;15.68;76.27;100678.75;4861777;28;97049;-79
2021/09/28 06:30:31;;;;;;;72.30;36.63;;;;;;;15.50;76.80;100693.69;4866906;28;101635;-79
2021/09/28 06:32:56;;;;;;;69.90;34.47;;;;;;;15.78;75.94;100695.88;4859861;28;101690;-79
2021/09/28 06:35:24;;;;;;;75.68;37.22;;;;;;;15.71;76.42;100696.28;4865553;28;96937;-84
2021/09/28 06:37:50;;;;;;;83.45;38.33;;;;;;;15.62;76.52;100697.56;4867489;28;97048;-82
2021/09/28 06:40:15;;;;;;;78.53;38.25;;;;;;;15.65;76.75;100688.56;4873915;28;101483;-82
2021/09/28 06:42:41;;;;;;;78.05;38.05;;;;;;;15.54;77.22;100689.97;4882116;28;97589;-82
2021/09/28 06:45:06;;;;;;;75.63;37.75;;;;;;;15.63;77.00;100686.03;4870190;28;97867;-82
2021/09/28 06:47:32;;;;;;;82.25;37.58;;;;;;;15.64;76.90;100685.06;4869531;28;98030;-83
2021/09/28 06:49:57;;;;;;;79.55;36.97;;;;;;;15.60;77.21;100688.81;4871017;28;101438;-82
2021/09/28 06:52:23;;;;;;;80.25;36.67;;;;;;;15.65;77.05;100694.75;4855401;28;102287;-82
2021/09/28 06:54:48;;;;;;;80.32;37.30;;;;;;;15.56;77.43;100688.13;4875424;28;97065;-80
2021/09/28 06:57:14;;;;;;;87.90;39.65;;;;;;;15.62;77.31;100692.25;4880486;28;97494;-87
2021/09/28 06:59:40;;;;;;;88.55;40.28;;;;;;;15.75;76.70;100696.03;4877185;28;101398;-88
2021/09/28 07:02:06;;;;;;;84.38;39.92;;;;;;;15.75;76.36;100701.31;4879737;28;97624;-88
2021/09/28 07:04:31;;;;;;;82.18;41.13;;;;;;;15.69;76.95;100701.63;4876517;28;96842;-87
2021/09/28 07:06:57;;;;;;;82.13;39.83;;;;;;;15.62;77.17;100709.00;4875299;28;98110;-87
2021/09/28 07:09:22;;;;;;;85.40;40.90;;;;;;;15.66;77.01;100720.28;4876355;28;101305;-81
2021/09/28 07:11:48;;;;;;;99.55;47.38;;;;;;;15.75;76.93;100711.91;4859008;28;101277;-81
2021/09/28 07:14:14;;;;;;;92.53;45.05;;;;;;;15.61;77.27;100727.56;4858988;28;97079;-82
2021/09/28 07:16:39;;;;;;;88.93;49.38;;;;;;;15.60;77.57;100720.56;4877796;28;96844;-78
2021/09/28 07:19:05;;;;;;;92.90;47.50;;;;;;;15.67;77.27;100726.41;4892508;28;97547;-78
2021/09/28 07:21:30;;;;;;;93.57;47.83;;;;;;;15.66;77.23;100725.56;4860960;28;97557;-78
2021/09/28 07:23:56;;;;;;;95.10;47.58;;;;;;;15.71;77.20;100726.25;4860066;28;97013;-77
2021/09/28 07:26:21;;;;;;;106.22;52.00;;;;;;;15.78;76.82;100722.34;4870338;28;98424;-77
2021/09/28 07:28:48;;;;;;;102.53;50.53;;;;;;;15.86;76.50;100721.97;4882162;28;97396;-77
2021/09/28 07:31:14;;;;;;;104.90;49.22;;;;;;;15.97;76.04;100724.94;4866801;28;97306;-77
2021/09/28 07:33:39;;;;;;;86.57;45.72;;;;;;;15.85;76.50;100728.19;4880935;28;96858;-77
2021/09/28 07:36:07;;;;;;;86.05;45.70;;;;;;;15.68;76.77;100734.31;4886094;28;97615;-76
2021/09/28 07:38:33;;;;;;;103.30;50.03;;;;;;;15.91;76.41;100732.31;4877625;28;98048;-77
2021/09/28 07:40:59;;;;;;;94.15;46.53;;;;;;;15.67;77.17;100743.16;4866732;28;101139;-76
2021/09/28 07:43:25;;;;;;;91.50;42.85;;;;;;;15.73;76.91;100749.97;4877946;28;97801;-76
2021/09/28 07:45:50;;;;;;;87.50;41.60;;;;;;;15.72;76.94;100749.13;4876897;28;96946;-77
2021/09/28 07:48:16;;;;;;;94.95;44.00;;;;;;;15.76;77.25;100753.31;4864590;28;101001;-77
2021/09/28 07:50:43;;;;;;;82.10;41.72;;;;;;;15.83;77.05;100754.75;4859557;28;101704;-77
2021/09/28 07:53:10;;;;;;;93.00;43.70;;;;;;;15.82;76.92;100754.81;4860009;28;97252;-78
2021/09/28 07:55:36;;;;;;;93.93;42.60;;;;;;;15.78;76.82;100755.91;4878094;28;97253;-76
2021/09/28 07:58:02;;;;;;;95.78;42.05;;;;;;;15.86;76.84;100764.34;4879713;28;97425;-77
2021/09/28 08:00:28;;;;;;;90.75;42.17;;;;;;;15.81;76.89;100761.03;4868344;28;101183;-77
2021/09/28 08:02:53;;;;;;;96.75;43.08;;;;;;;15.75;77.24;100759.56;4886061;28;97021;-77
2021/09/28 08:05:19;;;;;;;98.50;47.55;;;;;;;15.73;77.22;100761.41;4874599;28;97180;-77
2021/09/28 08:07:44;;;;;;;87.55;43.20;;;;;;;15.76;77.58;100758.59;4880046;28;101538;-77
2021/09/28 08:10:12;;;;;;;90.10;45.53;;;;;;;15.87;76.85;100766.03;4860232;28;97210;-77
2021/09/28 08:12:39;;;;;;;110.18;48.47;;;;;;;16.01;76.79;100760.06;4865185;28;97105;-77
2021/09/28 08:15:07;;;;;;;105.22;50.25;;;;;;;15.86;77.09;100766.97;4883168;28;97050;-77
2021/09/28 08:17:32;;;;;;;104.93;42.47;;;;;;;15.86;77.39;100772.28;4878264;28;98332;-77
2021/09/28 08:19:58;;;;;;;98.78;41.92;;;;;;;15.85;77.22;100767.88;4888829;28;97811;-77
2021/09/28 08:22:24;;;;;;;101.78;44.15;;;;;;;15.87;77.35;100770.47;4875483;28;97253;-77
2021/09/28 08:24:52;;;;;;;104.85;43.40;;;;;;;15.94;77.22;100777.16;4875779;28;96921;-77
2021/09/28 08:30:05;;;;;;;94.35;39.22;;;;;;;15.91;77.75;100780.84;4892124;28;97354;-77
2021/09/28 08:32:31;;;;;;;90.38;38.72;;;;;;;15.96;77.58;100784.09;4875486;28;96830;-77
2021/09/28 08:34:58;;;;;;;87.45;37.50;;;;;;;15.98;77.44;100787.53;4890610;28;97643;-77
2021/09/28 08:37:26;;;;;;;92.38;37.47;;;;;;;16.03;76.94;100792.63;4891729;28;97989;-76
2021/09/28 08:39:53;;;;;;;86.82;35.35;;;;;;;16.02;76.77;100785.59;4883510;28;98141;-76
2021/09/28 08:42:18;;;;;;;84.70;35.15;;;;;;;16.04;77.13;100794.34;4875189;28;97380;-78
2021/09/28 08:44:44;;;;;;;96.43;38.95;;;;;;;16.17;76.74;100781.34;4892360;28;97410;-76
2021/09/28 08:47:10;;;;;;;100.80;40.95;;;;;;;16.10;76.66;100769.34;4874525;28;101707;-78
2021/09/28 08:49:35;;;;;;;92.80;40.20;;;;;;;16.21;76.14;100775.81;4857865;28;101576;-78
2021/09/28 08:52:03;;;;;;;101.03;40.10;;;;;;;16.09;76.22;100773.78;4889892;28;97192;-76
2021/09/28 08:54:29;;;;;;;90.43;37.30;;;;;;;16.06;77.03;100777.44;4870686;28;98404;-77
2021/09/28 08:56:55;;;;;;;99.07;39.08;;;;;;;16.06;76.91;100780.09;4888885;28;98174;-77
2021/09/28 08:59:21;;;;;;;97.63;40.70;;;;;;;16.05;76.90;100785.44;4873945;28;97336;-79
2021/09/28 09:01:58;;;;;;;86.03;36.55;;;;;;;16.01;77.04;100778.59;4873010;28;96800;-78
2021/09/28 09:04:25;;;;;;;84.65;36.25;;;;;;;16.09;76.87;100775.59;4875246;28;97236;-78
2021/09/28 09:06:52;;;;;;;85.40;37.55;;;;;;;15.94;77.42;100772.75;4875975;28;101310;-76
2021/09/28 09:09:17;;;;;;;89.35;37.25;;;;;;;16.01;76.95;100786.53;4875524;28;101589;-76
2021/09/28 09:11:45;;;;;;;70.75;34.35;;;;;;;15.91;76.77;100775.56;4889348;28;96839;-75
2021/09/28 09:14:16;;;;;;;81.40;41.50;;;;;;;15.91;77.20;100780.84;4873374;28;97923;-75
2021/09/28 09:16:43;;;;;;;81.95;41.45;;;;;;;15.95;77.20;100782.41;4858916;28;101093;-75
2021/09/28 09:19:24;;;;;;;78.50;36.92;;;;;;;15.97;77.48;100769.97;4870823;28;101780;-75
2021/09/28 09:21:51;;;;;;;74.85;39.17;;;;;;;16.00;76.95;100766.31;4888543;28;97898;-78
2021/09/28 09:24:49;;;;;;;77.72;41.53;;;;;;;16.05;77.50;100767.75;4871071;28;97278;-76
2021/09/28 09:27:28;;;;;;;79.47;39.05;;;;;;;16.09;77.10;100779.09;4883275;28;98103;-76
2021/09/28 09:30:11;;;;;;;67.00;37.97;;;;;;;15.99;77.44;100786.59;4867043;28;101344;-76
2021/09/28 09:32:47;;;;;;;71.07;38.67;;;;;;;16.02;77.52;100782.94;4874330;28;97237;-76
2021/09/28 09:35:29;;;;;;;68.38;37.92;;;;;;;16.21;76.57;100783.75;4879387;28;96836;-76
2021/09/28 09:38:08;;;;;;;68.03;38.08;;;;;;;16.14;77.17;100786.78;4861544;28;101561;-76
2021/09/28 09:40:35;;;;;;;69.22;38.22;;;;;;;16.13;77.11;100779.78;4858924;28;101326;-76
2021/09/28 09:43:01;;;;;;;63.35;37.35;;;;;;;16.16;76.94;100775.19;4866653;28;98160;-76
2021/09/28 09:45:26;;;;;;;58.13;35.03;;;;;;;16.17;76.80;100776.03;4872491;28;97413;-75
2021/09/28 09:47:52;;;;;;;55.65;33.25;;;;;;;16.18;76.83;100778.63;4879212;28;99282;-76
2021/09/28 09:50:19;;;;;;;66.82;37.63;;;;;;;16.24;76.39;100773.00;4881118;28;97993;-76
2021/09/28 09:52:57;;;;;;;68.38;41.25;;;;;;;16.43;75.79;100780.88;4860149;28;97476;-76
2021/09/28 09:55:27;;;;;;;66.50;38.47;;;;;;;16.20;76.73;100783.81;4877961;28;97540;-76
2021/09/28 09:57:53;;;;;;;55.78;34.75;;;;;;;16.16;77.14;100776.97;4881179;28;97523;-76
2021/09/28 10:00:22;;;;;;;55.13;34.10;;;;;;;16.17;77.60;100781.34;4868401;28;97459;-77
2021/09/28 10:02:47;;;;;;;56.50;33.70;;;;;;;16.16;77.16;100790.22;4875139;28;96949;-76
2021/09/28 10:05:14;;;;;;;57.42;33.58;;;;;;;16.29;76.84;100791.34;4878317;28;97350;-76
2021/09/28 10:07:40;;;;;;;61.08;33.17;;;;;;;16.48;76.21;100796.53;4889497;28;98169;-77
2021/09/28 10:10:08;;;;;;;61.10;34.95;;;;;;;16.40;76.08;100801.38;4875688;28;100077;-79
2021/09/28 10:12:38;;;;;;;49.55;31.45;;;;;;;16.18;77.47;100794.50;4875560;28;97241;-76
2021/09/28 10:15:08;;;;;;;50.30;32.60;;;;;;;16.21;77.15;100798.81;4879186;28;98053;-76
2021/09/28 10:17:39;;;;;;;60.55;32.50;;;;;;;16.20;77.33;100797.94;4857689;28;101241;-84
2021/09/28 10:20:29;;;;;;;46.15;31.13;;;;;;;16.26;77.37;100802.06;4895231;28;101314;-85
2021/09/28 10:22:59;;;;;;;50.42;33.20;;;;;;;16.32;77.38;100806.19;4892381;28;97963;-83
2021/09/28 10:25:30;;;;;;;48.60;31.65;;;;;;;16.27;77.13;100806.44;4892480;28;97004;-87
2021/09/28 10:28:16;;;;;;;;;;;;;;;16.32;77.47;100792.94;4881493;28;97898;-82
2021/09/28 10:30:43;;;;;;;45.88;31.60;;;;;;;16.55;76.73;100791.78;4875509;28;101434;-80
2021/09/28 10:33:13;;;;;;;46.55;33.25;;;;;;;16.71;76.00;100790.91;4880501;28;97248;-82
2021/09/28 10:35:58;;;;;;;51.88;35.63;;;;;;;16.83;75.59;100794.75;4896719;28;97152;-80
2021/09/28 10:38:58;;;;;;;54.40;34.80;;;;;;;17.01;75.59;100792.91;4889888;28;101383;-80
2021/09/28 10:41:41;;;;;;;56.13;39.27;;;;;;;17.32;74.57;100785.97;4861309;28;101425;-86
2021/09/28 10:44:25;;;;;;;57.72;37.25;;;;;;;17.42;74.08;100787.16;4889956;28;96822;-82
2021/09/28 10:46:52;;;;;;;56.60;39.85;;;;;;;17.37;74.73;100789.22;4892169;28;96806;-80
2021/09/28 10:49:30;;;;;;;58.90;42.00;;;;;;;17.31;75.07;100784.25;4876105;28;102155;-80
2021/09/28 10:52:20;;;;;;;66.65;45.20;;;;;;;17.41;75.01;100791.59;4879352;28;101751;-80
2021/09/28 10:55:25;;;;;;;66.47;45.22;;;;;;;17.40;75.51;100787.25;4886029;28;96796;-80
2021/09/28 11:00:40;;;;;;;87.90;52.40;;;;;;;17.86;73.98;100783.88;4892600;28;98080;-81
2021/09/28 11:03:09;;;;;;;90.70;55.05;;;;;;;17.94;73.61;100783.41;4894603;28;98764;-82
2021/09/28 11:05:37;;;;;;;82.70;50.67;;;;;;;18.17;72.95;100790.03;4875948;28;97300;-84
2021/09/28 11:08:06;;;;;;;82.90;49.53;;;;;;;18.12;73.38;100787.66;4879160;28;98320;-81
2021/09/28 11:10:32;;;;;;;94.28;55.13;;;;;;;18.25;73.10;100791.31;4889986;28;98553;-82
2021/09/28 11:12:58;;;;;;;98.55;53.42;;;;;;;18.25;73.50;100788.66;4878533;28;97956;-85